Time;durP1;ratioP1;P1;durP2;ratioP2;P2;SDS_P1;SDS_P2;PMS_P1;PMS_P2;Temp;Humidity;BMP_temperature;BMP_pressure;BME280_temperature;BME280_humidity;BME280_pressure;Samples;Min_cycle;Max_cycle;Signal;HPM_P1;HPM_P2
2022/01/19 00:01:28;;;;;;;85.68;38.80;;;5.60;99.90;;;;;;5025188;28;20030;-62
2022/01/19 00:03:54;;;;;;;97.60;39.47;;;5.60;99.90;;;;;;5021561;28;20045;-62
2022/01/19 00:06:19;;;;;;;91.68;39.50;;;5.60;99.90;;;;;;5027440;28;20101;-63
2022/01/19 00:08:45;;;;;;;96.88;41.47;;;5.60;99.90;;;;;;5022396;28;20096;-62
2022/01/19 00:11:11;;;;;;;93.57;41.30;;;5.60;99.90;;;;;;5028089;28;20333;-62
2022/01/19 00:13:36;;;;;;;89.78;40.15;;;5.60;99.90;;;;;;5021979;28;20075;-63
2022/01/19 00:16:02;;;;;;;98.28;41.83;;;5.60;99.90;;;;;;5029294;28;20040;-62
2022/01/19 00:18:28;;;;;;;94.93;41.70;;;5.50;99.90;;;;;;5001051;28;20044;-63
2022/01/19 00:20:55;;;;;;;101.07;41.30;;;5.50;99.90;;;;;;5010492;28;20026;-62
2022/01/19 00:23:22;;;;;;;88.15;38.97;;;5.50;99.90;;;;;;5017877;28;20064;-60
2022/01/19 00:25:49;;;;;;;97.53;40.15;;;5.50;99.90;;;;;;5010332;28;20511;-63
2022/01/19 00:28:15;;;;;;;90.82;40.22;;;5.50;99.90;;;;;;5018005;28;20049;-62
2022/01/19 00:30:41;;;;;;;94.13;38.78;;;5.50;99.90;;;;;;5023121;28;20026;-62
2022/01/19 00:33:07;;;;;;;95.75;40.30;;;5.50;99.90;;;;;;5021613;28;20056;-63
2022/01/19 00:35:36;;;;;;;89.22;37.33;;;5.50;99.90;;;;;;5022031;28;20336;-62
2022/01/19 00:38:09;;;;;;;94.80;39.03;;;5.40;99.90;;;;;;4989099;28;20056;-62
2022/01/19 00:40:36;;;;;;;96.25;36.47;;;5.40;99.90;;;;;;4981607;28;20103;-62
2022/01/19 00:43:02;;;;;;;94.45;40.05;;;5.40;99.90;;;;;;5009879;28;20037;-63
2022/01/19 00:45:28;;;;;;;85.35;37.28;;;5.30;99.90;;;;;;5021961;28;20034;-62
2022/01/19 00:47:53;;;;;;;90.57;37.25;;;5.30;99.90;;;;;;5023190;28;20048;-62
2022/01/19 00:50:26;;;;;;;81.93;35.38;;;5.30;99.90;;;;;;5021637;28;20022;-63
2022/01/19 00:52:52;;;;;;;81.63;34.17;;;5.30;99.90;;;;;;5023409;28;20025;-62
2022/01/19 00:55:20;;;;;;;79.72;34.70;;;5.30;99.90;;;;;;5021795;28;20410;-62
2022/01/19 00:57:45;;;;;;;85.38;35.88;;;5.30;99.90;;;;;;5024292;28;20040;-60
2022/01/19 01:00:15;;;;;;;88.88;35.83;;;5.30;99.90;;;;;;5021408;28;20029;-62
2022/01/19 01:02:41;;;;;;;81.60;35.45;;;5.30;99.90;;;;;;5024762;28;20049;-62
2022/01/19 01:05:07;;;;;;;85.75;35.90;;;5.30;99.90;;;;;;5021433;28;20450;-62
2022/01/19 01:07:34;;;;;;;89.43;37.75;;;5.30;99.90;;;;;;5008237;28;20507;-62
2022/01/19 01:10:00;;;;;;;93.13;39.22;;;5.30;99.90;;;;;;5021103;28;20022;-61
2022/01/19 01:12:45;;;;;;;95.60;40.60;;;5.30;99.90;;;;;;5026058;28;20116;-63
2022/01/19 01:16:17;;;;;;;86.28;39.05;;;5.30;99.90;;;;;;5021356;28;20549;-63
2022/01/19 01:18:19;;;;;;;85.32;39.28;;;5.30;99.90;;;;;;5019495;28;20041;-61
2022/01/19 01:20:47;;;;;;;93.22;41.50;;;5.30;99.90;;;;;;5022564;28;20033;-61
2022/01/19 01:23:13;;;;;;;89.63;38.97;;;5.20;99.90;;;;;;5026795;28;20029;-64
2022/01/19 01:25:39;;;;;;;79.97;35.97;;;5.20;99.90;;;;;;5021957;28;20128;-61
2022/01/19 01:28:06;;;;;;;79.97;35.15;;;5.30;99.90;;;;;;5020425;28;20038;-64
2022/01/19 01:30:32;;;;;;;84.78;37.70;;;5.30;99.90;;;;;;5017845;28;20022;-63
2022/01/19 01:32:58;;;;;;;78.85;35.95;;;5.20;99.90;;;;;;5016456;28;20056;-61
2022/01/19 01:35:23;;;;;;;87.28;36.63;;;5.20;99.90;;;;;;5028114;28;20491;-62
2022/01/19 01:37:49;;;;;;;79.60;36.38;;;5.20;99.90;;;;;;5018359;28;20034;-61
2022/01/19 01:40:14;;;;;;;85.32;34.60;;;5.20;99.90;;;;;;5026440;28;20049;-61
2022/01/19 01:42:41;;;;;;;82.65;32.55;;;5.20;99.90;;;;;;5020170;28;20030;-61
2022/01/19 01:45:13;;;;;;;74.95;32.97;;;5.20;99.90;;;;;;5023440;28;20064;-61
2022/01/19 01:47:44;;;;;;;74.10;31.33;;;5.30;99.90;;;;;;5014391;28;20041;-60
2022/01/19 01:55:24;;;;;;;65.90;28.92;;;5.20;99.90;;;;;;5020596;28;20125;-61
2022/01/19 01:57:50;;;;;;;75.40;29.20;;;5.20;99.90;;;;;;5020927;28;20132;-61
2022/01/19 02:00:19;;;;;;;67.45;31.15;;;5.10;99.90;;;;;;5021105;28;20121;-62
2022/01/19 02:02:46;;;;;;;89.97;35.97;;;5.10;99.90;;;;;;5020567;28;20033;-61
2022/01/19 02:05:13;;;;;;;87.22;35.85;;;5.10;99.90;;;;;;5004086;28;20041;-62
2022/01/19 02:07:47;;;;;;;86.07;35.47;;;5.10;99.90;;;;;;5021042;28;20426;-62
2022/01/19 02:15:52;;;;;;;77.85;34.25;;;5.20;99.90;;;;;;5029834;28;20391;-59
2022/01/19 02:23:50;;;;;;;95.47;38.40;;;5.10;99.90;;;;;;5018757;28;20087;-60
2022/01/19 02:26:24;;;;;;;86.10;36.88;;;5.00;99.90;;;;;;5022886;28;20537;-61
2022/01/19 02:29:05;;;;;;;89.07;37.15;;;5.10;99.90;;;;;;5020554;28;20578;-61
2022/01/19 02:42:39;;;;;;;72.20;25.90;;;5.10;99.90;;;;;;5025010;28;20166;-62
2022/01/19 02:49:58;;;;;;;62.88;27.02;;;5.00;99.90;;;;;;5018162;28;20122;-62
2022/01/19 02:52:25;;;;;;;59.40;25.75;;;5.00;99.90;;;;;;5023461;28;20067;-62
2022/01/19 02:54:51;;;;;;;66.93;26.80;;;5.10;99.90;;;;;;5023500;28;20120;-62
2022/01/19 02:57:23;;;;;;;60.53;23.33;;;5.00;99.90;;;;;;5004062;28;20068;-62
2022/01/19 03:10:20;;;;;;;55.13;20.83;;;4.90;99.90;;;;;;5019988;28;20044;-64
2022/01/19 03:12:46;;;;;;;64.45;24.95;;;4.90;99.90;;;;;;5006731;28;20029;-62
2022/01/19 03:15:15;;;;;;;62.53;22.83;;;4.80;99.90;;;;;;5025965;28;20061;-62
2022/01/19 03:17:41;;;;;;;67.65;25.15;;;4.80;99.90;;;;;;5024861;28;20025;-62
2022/01/19 03:20:09;;;;;;;69.95;24.02;;;4.80;99.90;;;;;;5026334;28;20075;-61
2022/01/19 03:22:42;;;;;;;64.72;23.58;;;4.90;99.90;;;;;;5015294;28;20029;-63
2022/01/19 03:25:12;;;;;;;58.03;22.73;;;4.90;99.90;;;;;;5026925;28;20049;-62
2022/01/19 03:27:40;;;;;;;61.75;23.15;;;4.90;99.90;;;;;;5016146;28;20475;-62
2022/01/19 03:30:09;;;;;;;60.58;22.23;;;4.90;99.90;;;;;;5025845;28;20029;-63
2022/01/19 03:32:35;;;;;;;59.25;22.83;;;4.90;99.90;;;;;;4997929;28;20041;-63
2022/01/19 03:35:00;;;;;;;58.72;23.42;;;4.90;99.90;;;;;;5008470;28;20033;-62
2022/01/19 03:37:26;;;;;;;50.03;19.30;;;4.90;99.90;;;;;;5023444;28;20056;-62
2022/01/19 03:39:52;;;;;;;54.88;20.58;;;4.80;99.90;;;;;;5009052;28;20048;-62
2022/01/19 03:42:18;;;;;;;56.58;22.58;;;4.80;99.90;;;;;;5022918;28;20042;-62
2022/01/19 03:44:44;;;;;;;63.15;22.15;;;4.80;99.90;;;;;;5027650;28;20029;-62
2022/01/19 03:47:10;;;;;;;56.55;20.92;;;4.80;99.90;;;;;;5023138;28;20057;-61
2022/01/19 03:49:35;;;;;;;55.78;20.08;;;4.80;99.90;;;;;;5028360;28;20032;-62
2022/01/19 03:52:04;;;;;;;56.97;20.25;;;4.80;99.90;;;;;;5022161;28;20521;-62
2022/01/19 03:54:35;;;;;;;52.65;20.20;;;4.70;99.90;;;;;;5029179;28;20074;-62
2022/01/19 03:57:01;;;;;;;57.20;20.83;;;4.70;99.90;;;;;;5004911;28;20029;-62
2022/01/19 03:59:27;;;;;;;52.17;20.20;;;4.70;99.90;;;;;;5030150;28;20040;-63
2022/01/19 04:01:54;;;;;;;57.78;24.90;;;4.80;99.90;;;;;;5021685;28;20030;-61
2022/01/19 04:07:17;;;;;;;62.53;23.08;;;4.80;99.90;;;;;;5007317;28;20042;-62
2022/01/19 04:09:45;;;;;;;61.10;21.48;;;4.80;99.90;;;;;;5025318;28;20026;-62
2022/01/19 04:12:18;;;;;;;58.90;22.55;;;4.90;99.90;;;;;;5018878;28;20036;-62
2022/01/19 04:14:44;;;;;;;54.15;20.77;;;4.80;99.90;;;;;;5026719;28;20040;-62
2022/01/19 04:17:12;;;;;;;52.40;19.67;;;4.90;99.90;;;;;;5019028;28;20112;-62
2022/01/19 04:22:09;;;;;;;55.70;20.08;;;4.90;99.90;;;;;;5018443;28;20030;-62
2022/01/19 04:24:36;;;;;;;57.97;20.33;;;4.90;99.90;;;;;;4992856;28;20045;-61
2022/01/19 04:29:54;;;;;;;46.85;20.23;;;4.90;99.90;;;;;;4993656;28;20029;-63
2022/01/19 04:32:30;;;;;;;49.80;20.63;;;4.90;99.90;;;;;;5020021;28;20103;-63
2022/01/19 04:34:56;;;;;;;56.08;20.45;;;4.80;99.90;;;;;;5023824;28;20037;-63
2022/01/19 04:37:33;;;;;;;52.50;21.27;;;4.90;99.90;;;;;;5020532;28;20037;-63
2022/01/19 04:45:57;;;;;;;47.60;19.70;;;4.70;99.90;;;;;;5013018;28;20399;-60
2022/01/19 05:02:44;;;;;;;45.97;20.65;;;4.80;99.90;;;;;;5024666;28;20048;-60
2022/01/19 05:04:54;;;;;;;52.33;19.85;;;4.70;99.90;;;;;;5017137;28;20034;-61
2022/01/19 05:07:30;;;;;;;64.28;22.02;;;4.70;99.90;;;;;;5010911;28;20113;-59
2022/01/19 05:10:05;;;;;;;54.13;19.65;;;4.70;99.90;;;;;;5021181;28;20107;-58
2022/01/19 05:15:15;;;;;;;54.35;19.85;;;4.70;99.90;;;;;;5021808;28;20541;-58
2022/01/19 05:17:41;;;;;;;54.88;19.73;;;4.70;99.90;;;;;;5026332;28;20033;-61
2022/01/19 05:20:08;;;;;;;55.45;19.40;;;4.70;99.90;;;;;;5021655;28;20428;-61
2022/01/19 05:22:34;;;;;;;50.03;19.60;;;4.70;99.90;;;;;;5023773;28;20654;-57
2022/01/19 05:25:00;;;;;;;50.45;20.20;;;4.70;99.90;;;;;;5021167;28;20507;-58
2022/01/19 05:27:26;;;;;;;55.22;20.00;;;4.60;99.90;;;;;;5023614;28;20046;-57
2022/01/19 05:29:52;;;;;;;56.00;18.98;;;4.60;99.90;;;;;;5020895;28;20026;-59
2022/01/19 05:32:18;;;;;;;55.50;21.17;;;4.60;99.90;;;;;;5023834;28;20200;-58
2022/01/19 05:34:43;;;;;;;50.25;21.08;;;4.60;99.90;;;;;;5021190;28;20037;-58
2022/01/19 05:37:09;;;;;;;50.17;19.90;;;4.60;99.90;;;;;;5022932;28;20525;-63
2022/01/19 05:39:35;;;;;;;51.40;21.20;;;4.60;99.90;;;;;;5021450;28;20037;-59
2022/01/19 05:42:01;;;;;;;55.75;19.73;;;4.60;99.90;;;;;;5028359;28;20120;-59
2022/01/19 05:44:26;;;;;;;48.47;19.73;;;4.70;99.90;;;;;;5010961;28;20111;-60
2022/01/19 05:46:52;;;;;;;47.13;18.27;;;4.70;99.90;;;;;;5007748;28;20373;-61
2022/01/19 05:49:18;;;;;;;53.20;19.73;;;4.70;99.90;;;;;;5018710;28;20038;-59
2022/01/19 05:51:43;;;;;;;59.33;19.00;;;4.70;99.90;;;;;;5028532;28;20025;-60
2022/01/19 05:54:09;;;;;;;55.08;19.17;;;4.70;99.90;;;;;;5017917;28;20431;-60
2022/01/19 05:56:35;;;;;;;47.17;18.38;;;4.70;99.90;;;;;;5005662;28;20448;-58
2022/01/19 05:59:01;;;;;;;58.63;21.40;;;4.70;99.90;;;;;;5016622;28;20128;-60
2022/01/19 06:01:26;;;;;;;51.10;19.85;;;4.70;99.90;;;;;;5028104;28;20040;-60
2022/01/19 06:03:52;;;;;;;55.67;21.25;;;4.70;99.90;;;;;;5020448;28;20048;-61
2022/01/19 06:06:18;;;;;;;64.57;23.20;;;4.70;99.90;;;;;;5027311;28;20029;-62
2022/01/19 06:08:47;;;;;;;62.33;24.45;;;4.70;99.90;;;;;;5019335;28;20498;-58
2022/01/19 06:11:13;;;;;;;65.63;25.92;;;4.70;99.90;;;;;;5009214;28;20025;-61
2022/01/19 06:13:39;;;;;;;76.88;27.13;;;4.70;99.90;;;;;;5026592;28;20507;-60
2022/01/19 06:16:05;;;;;;;74.15;26.88;;;4.70;99.90;;;;;;5028014;28;20033;-60
2022/01/19 06:18:31;;;;;;;65.05;29.80;;;4.80;99.90;;;;;;5008833;28;20495;-57
2022/01/19 06:20:56;;;;;;;77.57;29.90;;;4.80;99.90;;;;;;5008094;28;20030;-60
2022/01/19 06:23:22;;;;;;;77.18;29.95;;;4.80;99.90;;;;;;5005731;28;20034;-59
2022/01/19 06:25:48;;;;;;;88.82;31.05;;;4.80;99.90;;;;;;5008024;28;20056;-59
2022/01/19 06:28:13;;;;;;;92.07;32.50;;;4.80;99.90;;;;;;5009396;28;20041;-60
2022/01/19 06:30:39;;;;;;;88.78;30.67;;;4.80;99.90;;;;;;5012615;28;20091;-55
2022/01/19 06:33:06;;;;;;;91.50;31.02;;;4.80;99.90;;;;;;5011336;28;20543;-62
2022/01/19 06:35:32;;;;;;;100.97;34.35;;;4.80;99.90;;;;;;5019923;28;20025;-59
2022/01/19 06:37:58;;;;;;;97.18;36.63;;;4.90;99.90;;;;;;5013840;28;20539;-61
2022/01/19 06:40:27;;;;;;;99.93;38.38;;;4.80;99.90;;;;;;5012598;28;20037;-60
2022/01/19 06:42:54;;;;;;;100.00;38.38;;;4.80;99.90;;;;;;5010741;28;20127;-59
2022/01/19 06:45:22;;;;;;;93.18;36.70;;;4.80;99.90;;;;;;5026883;28;20037;-59
2022/01/19 06:47:48;;;;;;;102.20;39.85;;;4.80;99.90;;;;;;5000435;28;20038;-62
2022/01/19 06:50:18;;;;;;;103.45;39.25;;;4.80;99.90;;;;;;5006858;28;20094;-60
2022/01/19 06:52:44;;;;;;;97.78;38.53;;;4.80;99.90;;;;;;5027695;28;20399;-59
2022/01/19 06:55:10;;;;;;;97.40;35.92;;;4.80;99.90;;;;;;5027961;28;20033;-59
2022/01/19 06:57:35;;;;;;;95.70;35.85;;;4.90;99.90;;;;;;5030569;28;20030;-57
2022/01/19 07:00:01;;;;;;;91.63;36.67;;;4.90;99.90;;;;;;5031825;28;20053;-58
2022/01/19 07:02:28;;;;;;;95.68;34.72;;;4.90;99.90;;;;;;5031624;28;20399;-60
2022/01/19 07:04:54;;;;;;;87.07;32.70;;;5.00;99.90;;;;;;5031717;28;20494;-61
2022/01/19 07:07:20;;;;;;;89.80;34.03;;;4.90;99.90;;;;;;5013868;28;20029;-59
2022/01/19 07:09:47;;;;;;;94.72;34.13;;;4.90;99.90;;;;;;5021434;28;20025;-59
2022/01/19 07:12:13;;;;;;;86.00;34.13;;;4.90;99.90;;;;;;5031288;28;20541;-61
2022/01/19 07:14:39;;;;;;;83.93;35.28;;;4.90;99.90;;;;;;5024682;28;20504;-60
2022/01/19 07:17:05;;;;;;;88.55;33.85;;;4.90;99.90;;;;;;5010100;28;20098;-59
2022/01/19 07:19:31;;;;;;;86.68;35.45;;;4.90;99.90;;;;;;5022822;28;20030;-60
2022/01/19 07:21:57;;;;;;;80.20;32.05;;;5.00;99.90;;;;;;5017579;28;20103;-60
2022/01/19 07:24:22;;;;;;;84.13;33.22;;;5.00;99.90;;;;;;5002728;28;20084;-58
2022/01/19 07:26:49;;;;;;;84.15;34.63;;;5.00;99.90;;;;;;5021484;28;20132;-59
2022/01/19 07:29:14;;;;;;;80.95;33.95;;;5.00;99.90;;;;;;5029241;28;20021;-59
2022/01/19 07:31:41;;;;;;;89.00;34.58;;;4.90;99.90;;;;;;5019207;28;20377;-60
2022/01/19 07:34:08;;;;;;;85.78;33.95;;;4.90;99.90;;;;;;5011975;28;20026;-60
2022/01/19 07:36:34;;;;;;;78.75;32.20;;;4.90;99.90;;;;;;5020403;28;20387;-60
2022/01/19 07:39:00;;;;;;;78.60;32.70;;;4.90;99.90;;;;;;5022230;28;20148;-51
2022/01/19 07:41:26;;;;;;;90.35;32.25;;;4.90;99.90;;;;;;5011391;28;20030;-52
2022/01/19 07:43:52;;;;;;;93.95;34.30;;;4.90;99.90;;;;;;5018937;28;20032;-54
2022/01/19 07:46:18;;;;;;;90.05;36.22;;;4.90;99.90;;;;;;5019774;28;20025;-50
2022/01/19 07:48:44;;;;;;;90.47;34.13;;;4.90;99.90;;;;;;5022437;28;20495;-50
2022/01/19 07:51:10;;;;;;;93.88;36.58;;;5.10;99.90;;;;;;5022927;28;20022;-52
2022/01/19 07:53:36;;;;;;;91.57;35.78;;;5.00;99.90;;;;;;5019392;28;20071;-57
2022/01/19 07:56:05;;;;;;;93.15;33.25;;;5.00;99.90;;;;;;5013575;28;20599;-54
2022/01/19 07:58:31;;;;;;;91.22;34.58;;;5.00;99.90;;;;;;5013609;28;20047;-56
2022/01/19 08:00:57;;;;;;;94.53;37.92;;;4.90;99.90;;;;;;5021826;28;20491;-54
2022/01/19 08:03:23;;;;;;;96.00;36.72;;;4.90;99.90;;;;;;5018952;28;20427;-56
2022/01/19 08:05:49;;;;;;;97.90;35.22;;;4.90;99.90;;;;;;5024330;28;20395;-52
2022/01/19 08:08:15;;;;;;;105.75;38.90;;;4.90;99.90;;;;;;5012294;28;20116;-55
2022/01/19 08:10:42;;;;;;;99.20;39.40;;;4.90;99.90;;;;;;5021091;28;20100;-54
2022/01/19 08:13:09;;;;;;;100.95;38.22;;;4.90;99.90;;;;;;5018769;28;20030;-56
2022/01/19 08:15:35;;;;;;;95.63;37.30;;;4.90;99.90;;;;;;5012925;28;20025;-54
2022/01/19 08:18:01;;;;;;;101.90;37.03;;;4.90;99.90;;;;;;5018193;28;20039;-53
2022/01/19 08:20:27;;;;;;;105.28;38.22;;;4.90;99.90;;;;;;5019173;28;20391;-53
2022/01/19 08:22:53;;;;;;;104.43;38.28;;;4.90;99.90;;;;;;5016940;28;20040;-55
2022/01/19 08:25:18;;;;;;;105.57;38.88;;;4.80;99.90;;;;;;5019987;28;20049;-54
2022/01/19 08:27:44;;;;;;;95.40;37.03;;;4.90;99.90;;;;;;5015092;28;20033;-55
2022/01/19 08:30:12;;;;;;;98.53;38.13;;;4.90;99.90;;;;;;5014090;28;20432;-56
2022/01/19 08:32:38;;;;;;;104.93;39.15;;;4.90;99.90;;;;;;5016283;28;20044;-54
2022/01/19 08:35:05;;;;;;;101.10;38.97;;;4.80;99.90;;;;;;5022096;28;20448;-53
2022/01/19 08:37:33;;;;;;;94.05;36.55;;;4.80;99.90;;;;;;4999109;28;20022;-57
2022/01/19 08:39:59;;;;;;;107.70;38.13;;;4.80;99.90;;;;;;5017195;28;20117;-54
2022/01/19 08:42:27;;;;;;;96.03;37.28;;;4.80;99.90;;;;;;5001610;28;20120;-58
2022/01/19 08:44:53;;;;;;;102.68;39.47;;;4.80;99.90;;;;;;5018394;28;20033;-56
2022/01/19 08:47:20;;;;;;;109.05;42.60;;;4.80;99.90;;;;;;5014162;28;20033;-55
2022/01/19 08:49:46;;;;;;;108.45;40.28;;;4.70;99.90;;;;;;5017156;28;20068;-56
2022/01/19 08:52:11;;;;;;;115.38;40.95;;;4.70;99.90;;;;;;5017592;28;20408;-57
2022/01/19 08:54:37;;;;;;;94.97;36.00;;;4.70;99.90;;;;;;5018737;28;20022;-53
2022/01/19 08:57:04;;;;;;;111.90;42.60;;;4.70;99.90;;;;;;5016938;28;20294;-53
2022/01/19 08:59:31;;;;;;;106.25;41.50;;;4.70;99.90;;;;;;5021949;28;20087;-52
2022/01/19 09:01:58;;;;;;;110.57;43.33;;;4.70;99.90;;;;;;5009783;28;20356;-51
2022/01/19 09:04:24;;;;;;;109.03;42.63;;;4.70;99.90;;;;;;5020001;28;20120;-51
2022/01/19 09:06:50;;;;;;;93.85;37.67;;;4.70;99.90;;;;;;5017129;28;20496;-51
2022/01/19 09:09:16;;;;;;;115.03;40.90;;;4.70;99.90;;;;;;5019182;28;20029;-54
2022/01/19 09:11:43;;;;;;;112.32;41.70;;;4.70;99.90;;;;;;5024120;28;20052;-54
2022/01/19 09:14:10;;;;;;;101.90;41.63;;;4.80;99.90;;;;;;5017070;28;20176;-54
2022/01/19 09:16:36;;;;;;;101.68;41.88;;;4.70;99.90;;;;;;5013129;28;20056;-55
2022/01/19 09:19:03;;;;;;;106.25;42.30;;;4.80;99.90;;;;;;5002696;28;20033;-54
2022/01/19 09:21:29;;;;;;;112.80;44.20;;;4.80;99.90;;;;;;5016433;28;20420;-52
2022/01/19 09:23:55;;;;;;;105.15;38.80;;;4.90;99.90;;;;;;5013393;28;20034;-57
2022/01/19 09:26:21;;;;;;;99.15;40.03;;;4.90;99.90;;;;;;5024698;28;20113;-53
2022/01/19 09:28:46;;;;;;;112.13;44.10;;;4.90;99.90;;;;;;5009065;28;20116;-56
2022/01/19 09:31:13;;;;;;;114.47;43.33;;;5.00;99.90;;;;;;5017410;28;20129;-55
2022/01/19 09:33:41;;;;;;;113.20;44.72;;;5.00;99.90;;;;;;4998633;28;20103;-56
2022/01/19 09:36:17;;;;;;;102.38;42.75;;;5.00;99.90;;;;;;5017047;28;20449;-56
2022/01/19 09:38:43;;;;;;;116.65;44.67;;;5.00;99.90;;;;;;5017405;28;20034;-55
2022/01/19 09:41:09;;;;;;;119.50;43.85;;;5.10;99.90;;;;;;5016556;28;20548;-53
2022/01/19 09:43:35;;;;;;;112.00;43.80;;;5.10;99.90;;;;;;5014776;28;20038;-52
2022/01/19 09:46:03;;;;;;;121.47;45.58;;;5.10;99.90;;;;;;5016582;28;20141;-53
2022/01/19 09:48:28;;;;;;;114.25;42.70;;;5.10;99.90;;;;;;5017940;28;20503;-55
2022/01/19 09:50:56;;;;;;;111.22;43.90;;;5.10;99.90;;;;;;5020653;28;20048;-54
2022/01/19 09:53:23;;;;;;;106.68;43.47;;;5.10;99.90;;;;;;5018153;28;20475;-54
2022/01/19 09:55:49;;;;;;;111.20;43.65;;;5.10;99.90;;;;;;5016904;28;20376;-55
2022/01/19 09:58:17;;;;;;;126.75;45.72;;;5.10;99.90;;;;;;5016197;28;20025;-55
2022/01/19 10:00:44;;;;;;;111.70;45.30;;;5.10;99.90;;;;;;5016202;28;20037;-53
2022/01/19 10:03:22;;;;;;;113.93;44.33;;;5.20;99.90;;;;;;5015749;28;20069;-55
2022/01/19 10:06:10;;;;;;;109.18;44.00;;;5.10;99.90;;;;;;5010973;28;20403;-54
2022/01/19 10:08:46;;;;;;;108.07;42.63;;;5.10;99.90;;;;;;5017666;28;20076;-56
2022/01/19 10:17:01;;;;;;;;;;;5.20;99.90;;;;;;5014536;28;20045;-50
2022/01/19 10:19:42;;;;;;;104.82;41.97;;;5.10;99.90;;;;;;5017503;28;19909;-56
2022/01/19 10:22:20;;;;;;;97.57;41.35;;;5.20;99.90;;;;;;5016481;28;20032;-56
2022/01/19 10:25:02;;;;;;;106.45;39.80;;;5.20;99.90;;;;;;5015153;28;20487;-55
2022/01/19 10:27:42;;;;;;;103.40;40.40;;;5.20;99.90;;;;;;4998530;28;20391;-54
2022/01/19 10:30:08;;;;;;;94.32;38.75;;;5.20;99.90;;;;;;5012937;28;20060;-55
2022/01/19 10:32:33;;;;;;;96.10;39.72;;;5.20;99.90;;;;;;5029688;28;20120;-53
2022/01/19 10:35:18;;;;;;;92.68;38.17;;;5.10;99.90;;;;;;5022515;28;20160;-52
2022/01/19 10:37:45;;;;;;;88.40;38.50;;;5.10;99.90;;;;;;5012498;28;20054;-56
2022/01/19 10:40:17;;;;;;;101.90;40.05;;;5.10;99.90;;;;;;5019463;28;20073;-52
2022/01/19 10:42:43;;;;;;;91.45;37.30;;;5.00;99.90;;;;;;5019451;28;20104;-53
2022/01/19 10:45:10;;;;;;;93.10;39.67;;;5.00;99.90;;;;;;5014889;28;20076;-53
2022/01/19 10:47:57;;;;;;;87.10;37.40;;;5.00;99.90;;;;;;5020477;28;20387;-55
2022/01/19 10:50:28;;;;;;;86.55;37.30;;;5.10;99.90;;;;;;5013555;28;20046;-53
2022/01/19 10:52:56;;;;;;;95.27;40.33;;;5.00;99.90;;;;;;5023353;28;20025;-54
2022/01/19 10:55:29;;;;;;;85.10;39.75;;;5.00;99.90;;;;;;5025123;28;20069;-54
2022/01/19 10:57:55;;;;;;;94.10;40.03;;;5.00;99.90;;;;;;5021713;28;20036;-54
2022/01/19 11:00:28;;;;;;;95.63;41.22;;;4.90;99.90;;;;;;5024943;28;20056;-55
2022/01/19 11:03:21;;;;;;;96.50;38.33;;;4.90;99.90;;;;;;5011289;28;20491;-53
2022/01/19 11:05:51;;;;;;;96.57;38.97;;;4.90;99.90;;;;;;5011071;28;20523;-55
2022/01/19 11:08:18;;;;;;;103.63;41.38;;;4.90;99.90;;;;;;5017212;28;20423;-54
2022/01/19 11:10:48;;;;;;;111.32;40.17;;;5.00;99.90;;;;;;5011315;28;20034;-55
2022/01/19 11:13:30;;;;;;;99.35;40.42;;;5.00;99.90;;;;;;5012569;28;20022;-55
2022/01/19 11:16:01;;;;;;;86.47;38.85;;;4.90;99.90;;;;;;5020529;28;20494;-54
2022/01/19 11:18:29;;;;;;;91.38;36.92;;;5.00;99.90;;;;;;5020162;28;20041;-57
2022/01/19 11:20:57;;;;;;;90.80;37.67;;;5.00;99.90;;;;;;5013826;28;20446;-55
2022/01/19 11:23:33;;;;;;;90.28;39.10;;;4.90;99.90;;;;;;5029999;28;20395;-56
2022/01/19 11:26:01;;;;;;;92.45;40.17;;;4.90;99.90;;;;;;5019603;28;20029;-53
2022/01/19 11:28:38;;;;;;;90.53;37.30;;;4.90;99.90;;;;;;5014397;28;20102;-56
2022/01/19 11:31:14;;;;;;;97.72;40.05;;;4.80;99.90;;;;;;5005101;28;20017;-51
2022/01/19 11:33:47;;;;;;;99.65;40.10;;;4.70;99.90;;;;;;5024820;28;20383;-54
2022/01/19 11:36:24;;;;;;;106.88;41.30;;;4.70;99.90;;;;;;5021079;28;20030;-56
2022/01/19 11:39:11;;;;;;;93.30;38.38;;;4.60;99.90;;;;;;5019757;28;20034;-54
2022/01/19 11:41:37;;;;;;;94.95;37.67;;;4.70;99.90;;;;;;5015716;28;20151;-54
2022/01/19 11:44:04;;;;;;;88.55;38.00;;;4.60;99.90;;;;;;5026224;28;20026;-54
2022/01/19 11:46:33;;;;;;;94.03;38.28;;;4.60;99.90;;;;;;5019470;28;20471;-54
2022/01/19 11:49:01;;;;;;;94.22;37.45;;;4.60;99.90;;;;;;5018388;28;20167;-58
2022/01/19 11:51:31;;;;;;;86.38;31.92;;;4.60;99.90;;;;;;5021336;28;20036;-54
2022/01/19 11:54:10;;;;;;;102.88;39.22;;;4.50;99.90;;;;;;5020692;28;20030;-56
2022/01/19 11:57:07;;;;;;;105.57;43.05;;;4.50;99.90;;;;;;4991514;28;20401;-57
2022/01/19 11:59:47;;;;;;;97.05;36.97;;;4.50;99.90;;;;;;5022167;28;20462;-57
2022/01/19 12:02:24;;;;;;;97.45;38.60;;;4.40;99.90;;;;;;5020930;28;20079;-54
2022/01/19 12:04:54;;;;;;;98.03;40.20;;;4.40;99.90;;;;;;5013781;28;20064;-54
2022/01/19 12:07:42;;;;;;;95.90;37.60;;;4.40;99.90;;;;;;5017488;28;20491;-59
2022/01/19 12:10:15;;;;;;;97.80;39.47;;;4.40;99.90;;;;;;5015600;28;20042;-55
2022/01/19 12:12:56;;;;;;;96.82;40.30;;;4.40;99.90;;;;;;4991161;28;20353;-55
2022/01/19 12:15:57;;;;;;;90.05;38.33;;;4.30;99.90;;;;;;5017356;28;20469;-53
2022/01/19 12:18:47;;;;;;;101.50;38.75;;;4.40;99.90;;;;;;5011316;28;20499;-56
2022/01/19 12:21:32;;;;;;;97.47;40.80;;;4.50;99.90;;;;;;5014005;28;20514;-56
2022/01/19 12:24:19;;;;;;;93.40;39.55;;;4.50;99.90;;;;;;5023508;28;20057;-57
2022/01/19 12:26:59;;;;;;;97.28;39.10;;;4.50;99.90;;;;;;5015587;28;20096;-53
2022/01/19 12:29:33;;;;;;;91.25;40.28;;;4.60;99.90;;;;;;5015218;28;20025;-55
2022/01/19 12:32:24;;;;;;;79.75;37.40;;;4.60;99.90;;;;;;5016253;28;20511;-53
2022/01/19 12:34:54;;;;;;;88.47;39.15;;;4.70;99.90;;;;;;5004301;28;20029;-56
2022/01/19 12:37:32;;;;;;;91.28;41.10;;;4.70;99.90;;;;;;5012645;28;20489;-56
2022/01/19 12:40:17;;;;;;;86.95;39.72;;;4.70;99.90;;;;;;5015538;28;20083;-54
2022/01/19 12:43:04;;;;;;;78.80;37.38;;;4.60;99.90;;;;;;5001977;28;20041;-55
2022/01/19 12:45:50;;;;;;;81.97;38.92;;;4.60;99.90;;;;;;5016832;28;20064;-53
2022/01/19 12:48:42;;;;;;;84.50;40.58;;;4.60;99.90;;;;;;5025446;28;20033;-56
2022/01/19 12:51:37;;;;;;;78.00;37.50;;;4.60;99.90;;;;;;5014598;28;20428;-55
2022/01/19 12:54:04;;;;;;;82.95;38.92;;;4.60;99.90;;;;;;4994610;28;20030;-56
2022/01/19 12:56:30;;;;;;;83.78;39.70;;;4.60;99.90;;;;;;5021027;28;20029;-54
2022/01/19 12:59:02;;;;;;;86.35;42.15;;;4.60;99.90;;;;;;5023975;28;20041;-53
2022/01/19 13:01:30;;;;;;;84.07;40.33;;;4.70;99.90;;;;;;5020586;28;20038;-54
2022/01/19 13:03:56;;;;;;;82.20;42.33;;;4.70;99.90;;;;;;5023124;28;20114;-55
2022/01/19 13:06:26;;;;;;;84.93;39.70;;;4.80;99.90;;;;;;5019975;28;20046;-55
2022/01/19 13:09:04;;;;;;;92.72;41.08;;;4.80;99.90;;;;;;5023661;28;20081;-53
2022/01/19 13:11:39;;;;;;;80.90;39.63;;;4.80;99.90;;;;;;5021072;28;20045;-55
2022/01/19 13:14:10;;;;;;;85.38;40.88;;;4.70;99.90;;;;;;5023763;28;20115;-53
2022/01/19 13:16:42;;;;;;;88.25;40.42;;;4.80;99.90;;;;;;5014015;28;20053;-55
2022/01/19 13:19:18;;;;;;;95.53;44.00;;;4.80;99.90;;;;;;5022785;28;20087;-55
2022/01/19 13:21:49;;;;;;;84.40;40.85;;;4.80;99.90;;;;;;5018584;28;20037;-58
2022/01/19 13:24:23;;;;;;;84.57;41.23;;;4.90;99.90;;;;;;5009634;28;20464;-55
2022/01/19 13:26:57;;;;;;;76.22;35.28;;;4.90;99.90;;;;;;5021894;28;20283;-54
2022/01/19 13:29:28;;;;;;;82.68;41.38;;;4.80;99.90;;;;;;5021496;28;20132;-57
2022/01/19 13:32:07;;;;;;;91.50;44.85;;;4.90;99.90;;;;;;5007401;28;20477;-53
2022/01/19 13:34:49;;;;;;;89.63;42.80;;;4.90;99.90;;;;;;5021006;28;20041;-53
2022/01/19 13:37:16;;;;;;;87.15;41.45;;;4.90;99.90;;;;;;5025148;28;20034;-50
2022/01/19 13:39:41;;;;;;;84.85;39.15;;;4.90;99.90;;;;;;5020142;28;20053;-57
2022/01/19 13:42:07;;;;;;;81.10;38.97;;;4.90;99.90;;;;;;5014550;28;20042;-52
2022/01/19 13:44:34;;;;;;;90.53;40.10;;;4.90;99.90;;;;;;5013255;28;20046;-53
2022/01/19 13:47:28;;;;;;;86.50;39.33;;;4.90;99.90;;;;;;5011887;28;20341;-57
2022/01/19 13:49:54;;;;;;;87.93;41.42;;;4.90;99.90;;;;;;5017244;28;20568;-54
2022/01/19 13:52:24;;;;;;;93.88;41.05;;;4.90;99.90;;;;;;5020889;28;20037;-53
2022/01/19 13:54:51;;;;;;;92.57;40.78;;;4.90;99.90;;;;;;5022530;28;20034;-51
2022/01/19 13:57:29;;;;;;;86.70;38.78;;;4.90;99.90;;;;;;5022624;28;20041;-58
2022/01/19 14:00:09;;;;;;;82.60;38.72;;;4.90;99.90;;;;;;5014423;28;20037;-55
2022/01/19 14:02:35;;;;;;;91.03;40.95;;;4.90;99.90;;;;;;5009016;28;20275;-56
2022/01/19 14:05:03;;;;;;;91.65;40.92;;;4.90;99.90;;;;;;5014816;28;20042;-54
2022/01/19 14:07:28;;;;;;;89.15;41.95;;;4.90;99.90;;;;;;5018606;28;20413;-52